Time;durP1;ratioP1;P1;durP2;ratioP2;P2;SDS_P1;SDS_P2;PMS_P1;PMS_P2;Temp;Humidity;BMP_temperature;BMP_pressure;BME280_temperature;BME280_humidity;BME280_pressure;Samples;Min_cycle;Max_cycle;Signal;HPM_P1;HPM_P2
2022/10/28 00:00:44;;;;;;;2.25;0.60;;;;;;;;;;4947087;28;20042;-64
2022/10/28 00:03:11;;;;;;;1.70;0.60;;;;;;;;;;4931887;28;20074;-65
2022/10/28 00:05:38;;;;;;;2.22;0.70;;;;;;;;;;4945957;28;20035;-66
2022/10/28 00:08:04;;;;;;;1.80;0.68;;;;;;;;;;4929990;28;20440;-65
2022/10/28 00:10:31;;;;;;;4.80;0.70;;;;;;;;;;4930408;28;20040;-65
2022/10/28 00:12:57;;;;;;;2.33;0.60;;;;;;;;;;4930653;28;20059;-65
2022/10/28 00:15:24;;;;;;;1.13;0.50;;;;;;;;;;4929749;28;20515;-67
2022/10/28 00:17:51;;;;;;;2.88;0.77;;;;;;;;;;4928508;28;20115;-66
2022/10/28 00:20:18;;;;;;;2.13;0.60;;;;;;;;;;4929677;28;20142;-66
2022/10/28 00:22:44;;;;;;;2.97;0.60;;;;;;;;;;4931201;28;20177;-66
2022/10/28 00:25:11;;;;;;;1.67;0.52;;;;;;;;;;4945180;28;20451;-67
2022/10/28 00:27:38;;;;;;;2.88;0.80;;;;;;;;;;4943584;28;20035;-66
2022/10/28 00:30:04;;;;;;;3.55;0.80;;;;;;;;;;4930853;28;20047;-67
2022/10/28 00:32:31;;;;;;;1.90;0.60;;;;;;;;;;4930124;28;20464;-65
2022/10/28 00:34:58;;;;;;;2.55;0.68;;;;;;;;;;4928660;28;20043;-67
2022/10/28 00:37:25;;;;;;;2.10;0.70;;;;;;;;;;4929886;28;21098;-66
2022/10/28 00:39:51;;;;;;;2.95;0.73;;;;;;;;;;4930594;28;20054;-67
2022/10/28 00:42:21;;;;;;;4.03;0.70;;;;;;;;;;4929858;28;21911;-66
2022/10/28 00:45:01;;;;;;;2.00;0.70;;;;;;;;;;4939189;28;20043;-69
2022/10/28 00:47:41;;;;;;;2.83;0.80;;;;;;;;;;4928818;28;20733;-68
2022/10/28 00:50:17;;;;;;;3.63;0.90;;;;;;;;;;4932718;28;20051;-67
2022/10/28 00:52:46;;;;;;;6.00;0.90;;;;;;;;;;4929910;28;20702;-67
2022/10/28 00:55:13;;;;;;;3.75;0.88;;;;;;;;;;4930522;28;20158;-68
2022/10/28 00:57:41;;;;;;;2.45;0.80;;;;;;;;;;4929273;28;20551;-66
2022/10/28 01:00:09;;;;;;;3.03;0.73;;;;;;;;;;4931171;28;20483;-65
2022/10/28 01:02:40;;;;;;;1.88;0.60;;;;;;;;;;4944366;28;20036;-66
2022/10/28 01:05:07;;;;;;;3.80;0.77;;;;;;;;;;4934255;28;20059;-66
2022/10/28 01:07:34;;;;;;;2.40;0.75;;;;;;;;;;4929746;28;20130;-65
2022/10/28 01:10:01;;;;;;;9.57;0.70;;;;;;;;;;4944011;28;20534;-65
2022/10/28 01:12:35;;;;;;;3.65;0.68;;;;;;;;;;4929032;28;20043;-65
2022/10/28 01:15:20;;;;;;;2.20;0.60;;;;;;;;;;4927181;28;21280;-68
2022/10/28 01:17:47;;;;;;;1.98;0.60;;;;;;;;;;4927547;28;20170;-66
2022/10/28 01:20:34;;;;;;;4.25;0.68;;;;;;;;;;4943607;28;20475;-67
2022/10/28 01:23:00;;;;;;;3.13;1.00;;;;;;;;;;4921961;28;20066;-66
2022/10/28 01:25:41;;;;;;;6.50;1.25;;;;;;;;;;4922080;28;20075;-69
2022/10/28 01:28:23;;;;;;;4.15;1.27;;;;;;;;;;4921419;28;20499;-66
2022/10/28 01:30:55;;;;;;;4.28;1.20;;;;;;;;;;4921847;28;20444;-66
2022/10/28 01:33:28;;;;;;;3.57;0.90;;;;;;;;;;4921240;28;20058;-66
2022/10/28 01:35:58;;;;;;;3.95;1.20;;;;;;;;;;4921534;28;20063;-65
2022/10/28 01:38:57;;;;;;;3.08;1.13;;;;;;;;;;4922113;29;20043;-67
2022/10/28 01:41:29;;;;;;;2.72;0.93;;;;;;;;;;4909354;28;20039;-66
2022/10/28 01:43:56;;;;;;;3.70;0.90;;;;;;;;;;4921957;29;20054;-67
2022/10/28 01:46:47;;;;;;;2.55;0.75;;;;;;;;;;4915657;29;20615;-66
2022/10/28 01:49:18;;;;;;;5.25;0.90;;;;;;;;;;4916439;28;20060;-66
2022/10/28 01:51:47;;;;;;;3.25;0.85;;;;;;;;;;4916449;29;20126;-66
2022/10/28 01:54:19;;;;;;;2.10;0.60;;;;;;;;;;4916952;29;20099;-66
2022/10/28 01:56:46;;;;;;;3.15;0.90;;;;;;;;;;4914440;29;20039;-67
2022/10/28 01:59:16;;;;;;;1.98;0.65;;;;;;;;;;4915774;29;20118;-66
2022/10/28 02:01:43;;;;;;;12.07;1.02;;;;;;;;;;4946096;28;20047;-67
2022/10/28 02:04:09;;;;;;;2.55;0.80;;;;;;;;;;4949161;28;20047;-67
2022/10/28 02:06:36;;;;;;;1.85;0.60;;;;;;;;;;4945514;28;20126;-66
2022/10/28 02:09:20;;;;;;;1.75;0.68;;;;;;;;;;4949120;28;20079;-66
2022/10/28 02:12:01;;;;;;;2.33;0.52;;;;;;;;;;4948752;28;20050;-65
2022/10/28 02:14:34;;;;;;;1.45;0.65;;;;;;;;;;4936762;28;20057;-67
2022/10/28 02:17:09;;;;;;;1.38;0.57;;;;;;;;;;4947237;28;20400;-67
2022/10/28 02:20:02;;;;;;;1.67;0.60;;;;;;;;;;4936262;28;20039;-67
2022/10/28 02:22:28;;;;;;;4.05;0.60;;;;;;;;;;4947581;28;20125;-66
2022/10/28 02:24:55;;;;;;;2.40;0.70;;;;;;;;;;4945726;28;20035;-66
2022/10/28 02:27:29;;;;;;;2.95;0.57;;;;;;;;;;4941101;28;20052;-70
2022/10/28 02:30:01;;;;;;;3.47;0.60;;;;;;;;;;4928292;28;20052;-66
2022/10/28 02:32:30;;;;;;;2.40;0.80;;;;;;;;;;4927701;28;20055;-67
2022/10/28 02:34:59;;;;;;;1.95;0.75;;;;;;;;;;4942295;28;20762;-66
2022/10/28 02:37:31;;;;;;;1.30;0.50;;;;;;;;;;4925357;28;20134;-65
2022/10/28 02:39:59;;;;;;;1.55;0.60;;;;;;;;;;4930636;28;20039;-69
2022/10/28 02:42:28;;;;;;;2.10;0.68;;;;;;;;;;4941588;28;20053;-65
2022/10/28 02:44:59;;;;;;;2.70;0.70;;;;;;;;;;4925346;28;20502;-66
2022/10/28 02:47:28;;;;;;;1.58;0.55;;;;;;;;;;4927035;28;20122;-65
2022/10/28 02:50:01;;;;;;;1.45;0.50;;;;;;;;;;4943218;28;20047;-66
2022/10/28 02:52:29;;;;;;;2.23;0.50;;;;;;;;;;4927884;28;20389;-66
2022/10/28 02:54:58;;;;;;;2.63;0.70;;;;;;;;;;4918958;28;20115;-67
2022/10/28 02:57:31;;;;;;;1.23;0.45;;;;;;;;;;4927168;28;20039;-66
2022/10/28 02:59:59;;;;;;;1.83;0.63;;;;;;;;;;4927682;28;20130;-66
2022/10/28 03:02:26;;;;;;;1.90;0.60;;;;;;;;;;4928074;28;20526;-66
2022/10/28 03:04:53;;;;;;;2.17;0.55;;;;;;;;;;4928437;28;20058;-65
2022/10/28 03:07:19;;;;;;;2.40;0.70;;;;;;;;;;4943920;28;20102;-65
2022/10/28 03:09:46;;;;;;;2.28;0.60;;;;;;;;;;4927369;28;20042;-67
2022/10/28 03:12:13;;;;;;;2.08;0.68;;;;;;;;;;4927245;28;20044;-66
2022/10/28 03:14:39;;;;;;;2.13;0.60;;;;;;;;;;4925704;28;20071;-64
2022/10/28 03:17:06;;;;;;;2.10;0.60;;;;;;;;;;4942631;28;20086;-64
2022/10/28 03:19:33;;;;;;;1.75;0.55;;;;;;;;;;4929353;28;20070;-64
2022/10/28 03:22:00;;;;;;;2.17;0.60;;;;;;;;;;4928255;28;20065;-67
2022/10/28 03:24:26;;;;;;;2.47;0.55;;;;;;;;;;4927609;28;20128;-66
2022/10/28 03:26:53;;;;;;;1.85;0.60;;;;;;;;;;4928172;28;21062;-65
2022/10/28 03:29:20;;;;;;;2.70;0.75;;;;;;;;;;4928272;28;20106;-64
2022/10/28 03:31:46;;;;;;;2.53;0.70;;;;;;;;;;4927597;28;20036;-66
2022/10/28 03:34:13;;;;;;;2.10;0.75;;;;;;;;;;4927622;28;20055;-65
2022/10/28 03:36:39;;;;;;;2.40;0.60;;;;;;;;;;4927027;28;21033;-66
2022/10/28 03:39:06;;;;;;;3.33;0.60;;;;;;;;;;4927684;28;20043;-66
2022/10/28 03:41:33;;;;;;;1.73;0.52;;;;;;;;;;4927336;28;20547;-65
2022/10/28 03:43:59;;;;;;;1.75;0.50;;;;;;;;;;4928170;28;20058;-67
2022/10/28 03:46:26;;;;;;;2.67;0.70;;;;;;;;;;4926277;28;20036;-67
2022/10/28 03:48:53;;;;;;;2.25;0.50;;;;;;;;;;4927844;28;20075;-65
2022/10/28 03:51:19;;;;;;;1.95;0.63;;;;;;;;;;4930964;28;20933;-66
2022/10/28 03:53:46;;;;;;;2.15;0.60;;;;;;;;;;4945408;28;20144;-67
2022/10/28 03:56:13;;;;;;;1.38;0.50;;;;;;;;;;4930060;28;20054;-66
2022/10/28 03:58:39;;;;;;;2.92;0.88;;;;;;;;;;4931240;28;20707;-65
2022/10/28 04:01:06;;;;;;;2.05;0.60;;;;;;;;;;4931760;28;20051;-67
2022/10/28 04:03:33;;;;;;;5.03;0.57;;;;;;;;;;4930975;28;20556;-66
2022/10/28 04:05:59;;;;;;;1.98;0.57;;;;;;;;;;4932824;28;20527;-66
2022/10/28 04:08:26;;;;;;;2.38;0.70;;;;;;;;;;4931120;28;20046;-66
2022/10/28 04:10:52;;;;;;;1.73;0.57;;;;;;;;;;4945636;28;21500;-66
2022/10/28 04:13:19;;;;;;;2.65;0.50;;;;;;;;;;4930253;28;20104;-66
2022/10/28 04:15:46;;;;;;;2.25;0.60;;;;;;;;;;4931895;28;20047;-67
2022/10/28 04:18:12;;;;;;;3.72;0.80;;;;;;;;;;4930017;28;20047;-67
2022/10/28 04:20:39;;;;;;;2.97;0.70;;;;;;;;;;4929869;28;20069;-65
2022/10/28 04:23:06;;;;;;;5.95;0.80;;;;;;;;;;4929698;28;20142;-66
2022/10/28 04:25:32;;;;;;;2.35;0.63;;;;;;;;;;4929441;28;20047;-66
2022/10/28 04:27:59;;;;;;;1.48;0.50;;;;;;;;;;4929494;28;20039;-66
2022/10/28 04:30:26;;;;;;;3.00;0.63;;;;;;;;;;4929243;28;20115;-66
2022/10/28 04:32:52;;;;;;;1.98;0.60;;;;;;;;;;4931093;28;20163;-67
2022/10/28 04:35:19;;;;;;;3.05;0.60;;;;;;;;;;4930364;28;20134;-65
2022/10/28 04:37:45;;;;;;;1.45;0.50;;;;;;;;;;4944411;28;20126;-66
2022/10/28 04:40:12;;;;;;;2.70;0.70;;;;;;;;;;4930314;28;20042;-66
2022/10/28 04:42:39;;;;;;;2.30;0.70;;;;;;;;;;4930275;28;20074;-66
2022/10/28 04:45:06;;;;;;;1.60;0.50;;;;;;;;;;4929741;28;20047;-66
2022/10/28 04:47:32;;;;;;;2.33;0.52;;;;;;;;;;4930363;28;20035;-67
2022/10/28 04:49:59;;;;;;;2.55;0.80;;;;;;;;;;4931779;28;20039;-67
2022/10/28 04:52:26;;;;;;;2.30;0.77;;;;;;;;;;4930553;28;20051;-67
2022/10/28 04:54:52;;;;;;;2.08;0.60;;;;;;;;;;4931632;28;20066;-67
2022/10/28 04:57:19;;;;;;;2.55;0.65;;;;;;;;;;4931117;28;20179;-67
2022/10/28 04:59:46;;;;;;;2.90;0.70;;;;;;;;;;4929931;28;20059;-67
2022/10/28 05:02:12;;;;;;;2.30;0.80;;;;;;;;;;4929059;28;20110;-65
2022/10/28 05:04:39;;;;;;;6.00;1.20;;;;;;;;;;4929845;28;20039;-64
2022/10/28 05:07:06;;;;;;;3.00;0.90;;;;;;;;;;4928328;28;20055;-65
2022/10/28 05:09:32;;;;;;;2.92;0.82;;;;;;;;;;4928863;28;20043;-65
2022/10/28 05:11:59;;;;;;;2.47;0.82;;;;;;;;;;4930059;28;20047;-65
2022/10/28 05:14:25;;;;;;;2.80;0.90;;;;;;;;;;4929128;28;20055;-65
2022/10/28 05:16:52;;;;;;;2.72;0.93;;;;;;;;;;4929584;28;20286;-65
2022/10/28 05:19:19;;;;;;;2.97;0.95;;;;;;;;;;4930800;28;20048;-66
2022/10/28 05:21:45;;;;;;;2.83;0.80;;;;;;;;;;4928434;28;20388;-66
2022/10/28 05:24:12;;;;;;;2.55;0.65;;;;;;;;;;4929144;28;20111;-66
2022/10/28 05:26:38;;;;;;;2.42;0.90;;;;;;;;;;4928575;28;20379;-65
2022/10/28 05:29:05;;;;;;;2.60;0.80;;;;;;;;;;4928144;28;20102;-65
2022/10/28 05:31:32;;;;;;;2.58;0.73;;;;;;;;;;4928232;28;20118;-65
2022/10/28 05:33:58;;;;;;;2.75;0.85;;;;;;;;;;4929299;28;20591;-66
2022/10/28 05:36:25;;;;;;;2.25;0.73;;;;;;;;;;4928911;28;20035;-66
2022/10/28 05:38:51;;;;;;;2.83;0.80;;;;;;;;;;4927962;28;20582;-66
2022/10/28 05:41:18;;;;;;;4.05;0.82;;;;;;;;;;4928598;28;20043;-65
2022/10/28 05:43:44;;;;;;;7.38;0.98;;;;;;;;;;4928616;28;20039;-65
2022/10/28 05:46:11;;;;;;;3.85;1.00;;;;;;;;;;4927317;28;20476;-65
2022/10/28 05:48:38;;;;;;;4.53;0.80;;;;;;;;;;4927561;28;20155;-65
2022/10/28 05:51:04;;;;;;;2.15;0.70;;;;;;;;;;4929642;28;20051;-65
2022/10/28 05:53:31;;;;;;;5.78;0.85;;;;;;;;;;4928873;28;20110;-66
2022/10/28 05:55:58;;;;;;;3.00;0.80;;;;;;;;;;4930303;28;20114;-66
2022/10/28 05:58:24;;;;;;;2.40;0.65;;;;;;;;;;4931738;28;20101;-65
2022/10/28 06:00:51;;;;;;;1.67;0.60;;;;;;;;;;4930562;28;20127;-65
2022/10/28 06:03:17;;;;;;;2.72;0.70;;;;;;;;;;4930301;28;20046;-65
2022/10/28 06:05:45;;;;;;;2.33;0.80;;;;;;;;;;4931015;28;20044;-64
2022/10/28 06:08:12;;;;;;;1.92;0.70;;;;;;;;;;4943344;28;20440;-64
2022/10/28 06:10:39;;;;;;;4.15;0.80;;;;;;;;;;4929505;28;20043;-65
2022/10/28 06:13:06;;;;;;;2.50;0.80;;;;;;;;;;4928103;28;20416;-65
2022/10/28 06:15:32;;;;;;;2.47;0.80;;;;;;;;;;4926951;28;20039;-65
2022/10/28 06:17:59;;;;;;;2.25;0.80;;;;;;;;;;4926916;28;20601;-65
2022/10/28 06:20:26;;;;;;;3.58;0.75;;;;;;;;;;4927209;28;20074;-65
2022/10/28 06:22:53;;;;;;;4.35;0.85;;;;;;;;;;4928098;28;20035;-65
2022/10/28 06:25:21;;;;;;;2.88;0.85;;;;;;;;;;4928270;28;20054;-65
2022/10/28 06:27:57;;;;;;;3.88;0.88;;;;;;;;;;4928651;28;20043;-66
2022/10/28 06:30:25;;;;;;;2.00;0.77;;;;;;;;;;4927252;28;20408;-65
2022/10/28 06:32:51;;;;;;;1.80;0.70;;;;;;;;;;4928551;28;20551;-65
2022/10/28 06:35:18;;;;;;;3.55;0.80;;;;;;;;;;4927545;28;20061;-65
2022/10/28 06:37:45;;;;;;;2.72;0.98;;;;;;;;;;4926181;28;20039;-67
2022/10/28 06:40:11;;;;;;;2.42;0.90;;;;;;;;;;4928612;28;20051;-67
2022/10/28 06:42:38;;;;;;;3.08;0.98;;;;;;;;;;4922083;28;20066;-66
2022/10/28 06:45:05;;;;;;;2.83;0.95;;;;;;;;;;4927076;28;20500;-67
2022/10/28 06:47:31;;;;;;;3.05;0.95;;;;;;;;;;4927821;28;20042;-66
2022/10/28 06:49:58;;;;;;;2.47;0.90;;;;;;;;;;4928590;28;20039;-66
2022/10/28 06:52:24;;;;;;;5.05;0.82;;;;;;;;;;4927574;28;20046;-65
2022/10/28 06:54:51;;;;;;;6.55;1.10;;;;;;;;;;4928525;28;20055;-64
2022/10/28 06:57:18;;;;;;;2.75;0.80;;;;;;;;;;4927030;28;20047;-64
2022/10/28 06:59:44;;;;;;;5.60;1.20;;;;;;;;;;4926524;28;20056;-64
2022/10/28 07:02:11;;;;;;;3.03;0.90;;;;;;;;;;4927384;28;20051;-64
2022/10/28 07:04:38;;;;;;;2.90;1.10;;;;;;;;;;4926893;28;20043;-65
2022/10/28 07:07:05;;;;;;;6.63;1.10;;;;;;;;;;4940845;28;20648;-66
2022/10/28 07:09:32;;;;;;;4.13;0.90;;;;;;;;;;4927174;28;20161;-66
2022/10/28 07:11:59;;;;;;;5.13;0.95;;;;;;;;;;4928047;28;21784;-65
2022/10/28 07:14:26;;;;;;;3.45;1.05;;;;;;;;;;4927078;28;20454;-66
2022/10/28 07:16:53;;;;;;;3.28;1.15;;;;;;;;;;4926628;28;22047;-66
2022/10/28 07:19:19;;;;;;;2.53;0.85;;;;;;;;;;4925275;28;20051;-68
2022/10/28 07:21:47;;;;;;;4.82;1.05;;;;;;;;;;4927578;28;20040;-66
2022/10/28 07:24:14;;;;;;;3.83;0.80;;;;;;;;;;4928388;28;20043;-66
2022/10/28 07:26:40;;;;;;;3.00;0.80;;;;;;;;;;4929384;28;20044;-65
2022/10/28 07:29:07;;;;;;;3.05;0.77;;;;;;;;;;4939964;28;20039;-66
2022/10/28 07:31:33;;;;;;;5.70;0.70;;;;;;;;;;4939346;28;20559;-65
2022/10/28 07:34:00;;;;;;;2.30;0.70;;;;;;;;;;4932265;28;20110;-66
2022/10/28 07:36:27;;;;;;;3.35;0.80;;;;;;;;;;4931533;28;20163;-66
2022/10/28 07:38:53;;;;;;;4.10;0.73;;;;;;;;;;4932096;28;20774;-66
2022/10/28 07:41:21;;;;;;;2.50;0.75;;;;;;;;;;4929784;28;20079;-66
2022/10/28 07:43:48;;;;;;;2.45;0.70;;;;;;;;;;4931530;28;20047;-65
2022/10/28 07:46:14;;;;;;;3.10;0.70;;;;;;;;;;4930164;28;20044;-65
2022/10/28 07:48:41;;;;;;;2.75;0.77;;;;;;;;;;4931232;28;20051;-65
2022/10/28 07:51:08;;;;;;;1.88;0.70;;;;;;;;;;4930704;28;20389;-66
2022/10/28 07:53:35;;;;;;;1.73;0.70;;;;;;;;;;4931364;28;20078;-65
2022/10/28 07:56:03;;;;;;;2.80;0.70;;;;;;;;;;4931220;28;20555;-65
2022/10/28 07:58:29;;;;;;;3.38;0.63;;;;;;;;;;4931379;28;20035;-66
2022/10/28 08:00:56;;;;;;;2.50;0.70;;;;;;;;;;4931177;28;20044;-65
2022/10/28 08:03:23;;;;;;;2.28;0.70;;;;;;;;;;4931346;28;20039;-66
2022/10/28 08:05:50;;;;;;;2.60;0.90;;;;;;;;;;4930966;28;20039;-65
2022/10/28 08:08:17;;;;;;;2.80;0.82;;;;;;;;;;4933395;28;20047;-65
2022/10/28 08:10:43;;;;;;;3.25;0.90;;;;;;;;;;4932178;28;20039;-65
2022/10/28 08:13:11;;;;;;;1.85;0.70;;;;;;;;;;4932150;28;20047;-66
2022/10/28 08:15:38;;;;;;;2.47;0.75;;;;;;;;;;4931287;28;20054;-66
2022/10/28 08:18:04;;;;;;;2.42;0.70;;;;;;;;;;4931948;28;20102;-66
2022/10/28 08:20:31;;;;;;;2.50;0.73;;;;;;;;;;4930220;28;20086;-66
2022/10/28 08:22:58;;;;;;;3.85;0.80;;;;;;;;;;4929805;28;20040;-66
2022/10/28 08:25:25;;;;;;;2.00;0.60;;;;;;;;;;4945125;28;20042;-66
2022/10/28 08:27:51;;;;;;;2.67;0.80;;;;;;;;;;4930207;28;20084;-66
2022/10/28 08:30:18;;;;;;;2.10;0.80;;;;;;;;;;4929125;28;20130;-66
2022/10/28 08:32:44;;;;;;;2.28;0.70;;;;;;;;;;4928750;28;20039;-66
2022/10/28 08:35:11;;;;;;;2.60;0.88;;;;;;;;;;4931346;28;20145;-65
2022/10/28 08:37:38;;;;;;;2.22;0.70;;;;;;;;;;4927649;28;20067;-66
2022/10/28 08:40:04;;;;;;;2.45;0.70;;;;;;;;;;4930278;28;20044;-66
2022/10/28 08:42:41;;;;;;;2.40;0.73;;;;;;;;;;4930218;28;20042;-66
2022/10/28 08:45:25;;;;;;;2.05;0.57;;;;;;;;;;4929716;28;20456;-66
2022/10/28 08:48:04;;;;;;;2.20;0.70;;;;;;;;;;4929718;28;20045;-65
2022/10/28 08:50:32;;;;;;;1.88;0.70;;;;;;;;;;4931785;28;20090;-66
2022/10/28 08:53:02;;;;;;;2.38;0.80;;;;;;;;;;4930878;28;20806;-66
2022/10/28 08:55:34;;;;;;;2.20;0.70;;;;;;;;;;4930731;28;20558;-66
2022/10/28 08:58:12;;;;;;;2.78;0.70;;;;;;;;;;4932223;28;20042;-66
2022/10/28 09:00:40;;;;;;;2.70;0.80;;;;;;;;;;4931490;28;20043;-65
2022/10/28 09:03:12;;;;;;;3.30;0.82;;;;;;;;;;4931555;28;20142;-66
2022/10/28 09:05:39;;;;;;;2.50;0.70;;;;;;;;;;4929653;28;20099;-67
2022/10/28 09:08:06;;;;;;;2.42;0.70;;;;;;;;;;4930750;28;20035;-65
2022/10/28 09:10:45;;;;;;;2.50;0.85;;;;;;;;;;4930547;28;20035;-65
2022/10/28 09:13:31;;;;;;;1.88;0.60;;;;;;;;;;4929719;28;20519;-66
2022/10/28 09:16:20;;;;;;;2.05;0.70;;;;;;;;;;4929087;28;20047;-66
2022/10/28 09:18:52;;;;;;;5.03;1.00;;;;;;;;;;4923053;28;20109;-66
2022/10/28 09:21:37;;;;;;;2.72;0.70;;;;;;;;;;4931238;28;20035;-66
2022/10/28 09:24:26;;;;;;;3.03;0.70;;;;;;;;;;4931636;28;20050;-65
2022/10/28 09:27:16;;;;;;;2.10;0.70;;;;;;;;;;4925584;28;20043;-65
2022/10/28 09:29:42;;;;;;;2.25;0.60;;;;;;;;;;4927412;28;20039;-70
2022/10/28 09:32:09;;;;;;;2.20;0.70;;;;;;;;;;4930398;28;20047;-65
2022/10/28 09:34:36;;;;;;;2.13;0.70;;;;;;;;;;4928672;28;21170;-65
2022/10/28 09:37:17;;;;;;;1.85;0.60;;;;;;;;;;4929808;28;20074;-66
2022/10/28 09:39:49;;;;;;;3.25;0.68;;;;;;;;;;4928867;28;20066;-70
2022/10/28 09:42:19;;;;;;;2.03;0.60;;;;;;;;;;4931823;28;20062;-67
2022/10/28 09:44:55;;;;;;;2.20;0.65;;;;;;;;;;4928399;28;20035;-66
2022/10/28 09:47:23;;;;;;;2.50;0.80;;;;;;;;;;4928686;28;20051;-66
2022/10/28 09:49:51;;;;;;;2.88;0.80;;;;;;;;;;4928440;28;20404;-65
2022/10/28 09:52:33;;;;;;;1.70;0.60;;;;;;;;;;4930732;28;20222;-64
2022/10/28 09:55:03;;;;;;;1.42;0.60;;;;;;;;;;4944326;28;20542;-65
2022/10/28 09:57:30;;;;;;;2.63;0.80;;;;;;;;;;4928945;28;20043;-64
2022/10/28 09:59:57;;;;;;;1.65;0.68;;;;;;;;;;4929713;28;20679;-64
2022/10/28 10:05:00;;;;;;;2.15;0.80;;;;;;;;;;4930947;23;20051;-66
2022/10/28 10:07:33;;;;;;;2.30;0.80;;;;;;;;;;4938216;28;20067;-66
2022/10/28 10:10:02;;;;;;;2.47;0.85;;;;;;;;;;4937764;28;20047;-66
2022/10/28 10:12:30;;;;;;;2.50;0.70;;;;;;;;;;4936267;28;20101;-65
2022/10/28 10:14:58;;;;;;;3.85;0.90;;;;;;;;;;4938207;28;20051;-65
2022/10/28 10:17:32;;;;;;;2.97;0.73;;;;;;;;;;4945326;28;20043;-65
2022/10/28 10:20:01;;;;;;;2.03;0.70;;;;;;;;;;4938704;28;20051;-65
2022/10/28 10:22:32;;;;;;;1.90;0.65;;;;;;;;;;4937908;28;20098;-67
2022/10/28 10:24:59;;;;;;;2.67;0.77;;;;;;;;;;4938130;28;20047;-68
2022/10/28 10:27:26;;;;;;;3.65;0.77;;;;;;;;;;4938871;28;20044;-67
2022/10/28 10:29:53;;;;;;;2.80;0.93;;;;;;;;;;4938004;28;20039;-66
2022/10/28 10:32:25;;;;;;;2.00;0.57;;;;;;;;;;4936373;28;20394;-65
2022/10/28 10:35:14;;;;;;;3.28;0.73;;;;;;;;;;4937681;28;20055;-66
2022/10/28 10:37:45;;;;;;;2.90;0.77;;;;;;;;;;4930592;28;20062;-65
2022/10/28 10:40:17;;;;;;;2.55;0.77;;;;;;;;;;4938357;28;20049;-65
2022/10/28 10:42:44;;;;;;;2.47;0.77;;;;;;;;;;4936468;28;20940;-65
2022/10/28 10:45:22;;;;;;;2.10;0.70;;;;;;;;;;4937718;28;20107;-65
2022/10/28 10:47:49;;;;;;;1.85;0.75;;;;;;;;;;4937683;28;20039;-65
2022/10/28 10:50:22;;;;;;;3.00;0.60;;;;;;;;;;4937285;28;20451;-66
2022/10/28 10:52:54;;;;;;;2.30;0.70;;;;;;;;;;4936112;28;20500;-66
2022/10/28 10:55:23;;;;;;;2.85;0.70;;;;;;;;;;4937303;28;20133;-66
2022/10/28 10:57:50;;;;;;;4.80;1.00;;;;;;;;;;4937832;28;20043;-66
2022/10/28 11:00:19;;;;;;;2.63;0.80;;;;;;;;;;4938761;28;20492;-65
2022/10/28 11:02:46;;;;;;;2.83;0.88;;;;;;;;;;4940143;28;20078;-66
2022/10/28 11:05:19;;;;;;;2.40;0.80;;;;;;;;;;4941176;28;20102;-67
2022/10/28 11:07:47;;;;;;;;;;;;;;;;;;4940323;28;20066;-66
2022/10/28 11:10:22;;;;;;;8.02;0.80;;;;;;;;;;4942030;28;20378;-65
2022/10/28 11:12:53;;;;;;;2.30;0.68;;;;;;;;;;4940280;28;20061;-66
2022/10/28 11:15:20;;;;;;;2.65;0.80;;;;;;;;;;4939630;28;20055;-67
2022/10/28 11:18:03;;;;;;;4.00;0.80;;;;;;;;;;4940955;28;20047;-66
2022/10/28 11:20:48;;;;;;;1.70;0.55;;;;;;;;;;4940392;28;20046;-66
2022/10/28 11:23:15;;;;;;;2.13;0.73;;;;;;;;;;4940896;28;20047;-65
2022/10/28 11:25:46;;;;;;;3.00;0.80;;;;;;;;;;4941024;28;20039;-65
2022/10/28 11:28:19;;;;;;;2.97;0.80;;;;;;;;;;4942069;28;20126;-65
2022/10/28 11:30:52;;;;;;;2.45;0.90;;;;;;;;;;4941673;28;20039;-65
2022/10/28 11:33:26;;;;;;;2.67;0.80;;;;;;;;;;4941133;28;20134;-65
2022/10/28 11:35:53;;;;;;;2.50;0.80;;;;;;;;;;4921823;28;20084;-65
2022/10/28 11:38:40;;;;;;;3.75;0.80;;;;;;;;;;4921109;28;20040;-65
2022/10/28 11:41:06;;;;;;;3.80;0.82;;;;;;;;;;4923276;28;20449;-66
2022/10/28 11:43:36;;;;;;;2.92;0.88;;;;;;;;;;4921465;28;20036;-66
2022/10/28 11:46:21;;;;;;;3.58;1.02;;;;;;;;;;4922632;28;20555;-65
2022/10/28 11:49:06;;;;;;;2.33;0.68;;;;;;;;;;4930356;28;20115;-66
2022/10/28 11:51:40;;;;;;;2.20;0.75;;;;;;;;;;4922642;28;21090;-65
2022/10/28 11:54:19;;;;;;;2.53;0.88;;;;;;;;;;4922873;28;20064;-65
2022/10/28 11:56:49;;;;;;;2.45;0.80;;;;;;;;;;4921008;29;20048;-64
2022/10/28 11:59:22;;;;;;;2.63;0.70;;;;;;;;;;4922767;28;20448;-65
2022/10/28 12:02:07;;;;;;;1.93;0.73;;;;;;;;;;4921048;28;20465;-69
2022/10/28 12:04:48;;;;;;;2.70;0.90;;;;;;;;;;4922069;28;20068;-66
2022/10/28 12:07:21;;;;;;;3.75;0.90;;;;;;;;;;4921161;28;20048;-66
2022/10/28 12:10:17;;;;;;;2.80;0.80;;;;;;;;;;4918582;29;20063;-66
2022/10/28 12:12:51;;;;;;;3.15;0.80;;;;;;;;;;4916170;28;20047;-65
2022/10/28 12:15:47;;;;;;;4.35;1.00;;;;;;;;;;4935895;28;20703;-65
2022/10/28 12:18:27;;;;;;;3.13;0.80;;;;;;;;;;4915364;28;20043;-66
2022/10/28 12:20:57;;;;;;;2.10;0.80;;;;;;;;;;4920639;28;20048;-66
2022/10/28 12:23:24;;;;;;;2.30;0.80;;;;;;;;;;4920169;28;20075;-65
2022/10/28 12:25:53;;;;;;;2.50;0.90;;;;;;;;;;4921576;28;20047;-66
2022/10/28 12:28:27;;;;;;;3.03;1.02;;;;;;;;;;4919499;28;20044;-69
2022/10/28 12:30:55;;;;;;;4.40;1.20;;;;;;;;;;4921578;28;20095;-66
2022/10/28 12:33:27;;;;;;;4.60;1.00;;;;;;;;;;4919385;28;20039;-66
2022/10/28 12:36:03;;;;;;;4.40;1.30;;;;;;;;;;4922346;28;20043;-67
2022/10/28 12:38:35;;;;;;;3.63;1.30;;;;;;;;;;4921206;28;20040;-66
2022/10/28 12:41:21;;;;;;;2.88;1.00;;;;;;;;;;4915761;28;20052;-67
2022/10/28 12:43:47;;;;;;;3.05;1.10;;;;;;;;;;4915437;28;20062;-66
2022/10/28 12:46:18;;;;;;;4.72;1.15;;;;;;;;;;4916594;28;20075;-67
2022/10/28 12:48:48;;;;;;;2.08;0.90;;;;;;;;;;4916022;28;20127;-66
2022/10/28 12:51:17;;;;;;;4.30;1.20;;;;;;;;;;4934732;28;20591;-65
2022/10/28 12:53:46;;;;;;;3.75;1.20;;;;;;;;;;4916945;28;20055;-68
2022/10/28 12:56:24;;;;;;;2.72;0.93;;;;;;;;;;4935010;28;20472;-65
2022/10/28 12:58:58;;;;;;;3.95;1.15;;;;;;;;;;4921124;28;20322;-66
2022/10/28 13:01:27;;;;;;;3.25;1.00;;;;;;;;;;4913779;28;20032;-65
2022/10/28 13:03:54;;;;;;;2.80;1.00;;;;;;;;;;4913140;28;21251;-64
2022/10/28 13:06:33;;;;;;;3.97;1.05;;;;;;;;;;4913258;28;20059;-69
2022/10/28 13:09:14;;;;;;;7.88;1.10;;;;;;;;;;4928519;28;20501;-65
2022/10/28 13:11:53;;;;;;;8.23;2.63;;;;;;;;;;4913258;28;20047;-66
2022/10/28 13:14:59;;;;;;;3.78;1.40;;;;;;;;;;4913628;28;20043;-65
2022/10/28 13:17:38;;;;;;;6.70;1.30;;;;;;;;;;4880001;29;20048;-65
2022/10/28 13:20:08;;;;;;;6.10;1.30;;;;;;;;;;4882366;29;20042;-64
2022/10/28 13:22:46;;;;;;;5.97;1.20;;;;;;;;;;4900794;28;20142;-65
2022/10/28 13:25:19;;;;;;;3.42;1.20;;;;;;;;;;4913744;28;20044;-65
2022/10/28 13:27:47;;;;;;;4.28;1.50;;;;;;;;;;4912064;28;20044;-67
2022/10/28 13:30:18;;;;;;;5.03;1.27;;;;;;;;;;4913425;28;20464;-66
2022/10/28 13:32:45;;;;;;;5.05;1.00;;;;;;;;;;4912613;28;20055;-66
2022/10/28 13:35:23;;;;;;;4.68;1.42;;;;;;;;;;4913064;28;20563;-65
2022/10/28 13:37:50;;;;;;;4.40;1.35;;;;;;;;;;4911935;28;20062;-65
2022/10/28 13:40:40;;;;;;;5.05;1.33;;;;;;;;;;4913843;28;20043;-66
2022/10/28 13:43:17;;;;;;;5.10;1.10;;;;;;;;;;4907109;28;20118;-66
2022/10/28 13:45:44;;;;;;;3.92;1.50;;;;;;;;;;4912590;28;20592;-66
2022/10/28 13:48:29;;;;;;;4.03;1.20;;;;;;;;;;4926375;28;20276;-66
2022/10/28 13:51:11;;;;;;;7.68;1.20;;;;;;;;;;4919760;28;20043;-67
2022/10/28 13:53:51;;;;;;;6.30;1.67;;;;;;;;;;4912383;28;20150;-67
2022/10/28 13:56:32;;;;;;;3.60;1.30;;;;;;;;;;4912774;28;20048;-66
2022/10/28 13:59:14;;;;;;;6.30;1.65;;;;;;;;;;4911466;28;20489;-66
2022/10/28 14:01:54;;;;;;;6.70;1.60;;;;;;;;;;4911928;28;20042;-66
2022/10/28 14:04:31;;;;;;;5.55;1.40;;;;;;;;;;4911273;28;20051;-67
2022/10/28 14:07:11;;;;;;;7.00;1.42;;;;;;;;;;4911661;28;20122;-67
2022/10/28 14:09:39;;;;;;;4.55;1.15;;;;;;;;;;4911896;28;20618;-66
2022/10/28 14:12:16;;;;;;;4.97;1.20;;;;;;;;;;4912588;28;20162;-65
2022/10/28 14:14:57;;;;;;;4.35;1.40;;;;;;;;;;4918525;28;20714;-65
2022/10/28 14:17:50;;;;;;;4.88;1.50;;;;;;;;;;4911263;28;20575;-66
2022/10/28 14:20:25;;;;;;;10.60;1.70;;;;;;;;;;4911203;28;20123;-66
2022/10/28 14:22:53;;;;;;;5.32;1.40;;;;;;;;;;4903035;29;20052;-67
2022/10/28 14:25:38;;;;;;;15.85;1.80;;;;;;;;;;4926807;28;20067;-67
2022/10/28 14:28:24;;;;;;;5.80;1.50;;;;;;;;;;4911337;28;20051;-67
2022/10/28 14:31:13;;;;;;;6.75;1.63;;;;;;;;;;4909980;28;20039;-66
2022/10/28 14:33:45;;;;;;;6.25;1.40;;;;;;;;;;4910180;28;20055;-66
2022/10/28 14:36:18;;;;;;;5.78;1.40;;;;;;;;;;4911822;28;20492;-66
2022/10/28 14:39:03;;;;;;;2.50;1.13;;;;;;;;;;4920619;28;20043;-66
2022/10/28 14:41:35;;;;;;;3.28;1.20;;;;;;;;;;4913819;28;20293;-65
2022/10/28 14:44:11;;;;;;;4.18;1.40;;;;;;;;;;4911922;28;20484;-65
2022/10/28 14:46:54;;;;;;;3.75;1.20;;;;;;;;;;4911564;28;20837;-66
2022/10/28 14:49:23;;;;;;;4.63;0.98;;;;;;;;;;4911392;28;20047;-66
2022/10/28 14:51:51;;;;;;;5.22;1.10;;;;;;;;;;4912274;28;20063;-65
2022/10/28 14:54:21;;;;;;;3.15;1.25;;;;;;;;;;4911731;28;20086;-65
2022/10/28 14:56:49;;;;;;;4.55;1.23;;;;;;;;;;4910606;28;20076;-65
2022/10/28 14:59:24;;;;;;;6.07;1.50;;;;;;;;;;4911818;28;20051;-66
2022/10/28 15:01:59;;;;;;;3.55;1.50;;;;;;;;;;4916910;28;20071;-65
2022/10/28 15:04:26;;;;;;;9.32;1.50;;;;;;;;;;4911211;28;20151;-66
2022/10/28 15:06:53;;;;;;;7.40;1.52;;;;;;;;;;4910259;29;20039;-66